Time;durP1;ratioP1;P1;durP2;ratioP2;P2;SDS_P1;SDS_P2;PMS_P1;PMS_P2;Temp;Humidity;BMP_temperature;BMP_pressure;BME280_temperature;BME280_humidity;BME280_pressure;Samples;Min_cycle;Max_cycle;Signal;HPM_P1;HPM_P2
2021/08/22 00:00:07;;;;;;;12.52;8.45;;;19.90;86.70;;;;;;5048794;28;20033;-66
2021/08/22 00:02:33;;;;;;;13.15;8.18;;;19.90;86.90;;;;;;5050523;28;20103;-66
2021/08/22 00:04:59;;;;;;;13.13;8.75;;;19.90;87.00;;;;;;5050033;28;20132;-67
2021/08/22 00:07:24;;;;;;;11.27;8.45;;;19.90;86.90;;;;;;5049623;28;20039;-66
2021/08/22 00:09:50;;;;;;;11.23;7.75;;;20.00;87.10;;;;;;5050816;28;20033;-66
2021/08/22 00:12:16;;;;;;;11.35;7.93;;;19.90;87.00;;;;;;5050352;28;20439;-66
2021/08/22 00:14:41;;;;;;;14.40;8.05;;;19.90;87.10;;;;;;5049191;28;20404;-66
2021/08/22 00:17:07;;;;;;;10.60;8.48;;;19.80;87.00;;;;;;5049951;28;20108;-67
2021/08/22 00:19:33;;;;;;;9.40;7.45;;;19.80;87.20;;;;;;5050256;28;20507;-66
2021/08/22 00:21:58;;;;;;;13.18;8.20;;;19.70;87.30;;;;;;5050250;28;20032;-66
2021/08/22 00:24:24;;;;;;;10.07;7.70;;;19.70;87.40;;;;;;5049779;28;20025;-66
2021/08/22 00:26:49;;;;;;;11.32;8.00;;;19.60;87.20;;;;;;5048837;28;20117;-66
2021/08/22 00:29:15;;;;;;;10.02;7.95;;;19.60;87.30;;;;;;5049643;28;20469;-66
2021/08/22 00:31:41;;;;;;;12.30;8.55;;;19.50;87.50;;;;;;5050148;28;20040;-66
2021/08/22 00:34:06;;;;;;;10.70;8.55;;;19.40;87.50;;;;;;5048216;28;20029;-67
2021/08/22 00:36:32;;;;;;;12.32;9.75;;;19.40;87.60;;;;;;5047832;28;20063;-67
2021/08/22 00:38:57;;;;;;;12.38;9.55;;;19.30;87.90;;;;;;5049566;28;20401;-67
2021/08/22 00:41:23;;;;;;;13.52;8.82;;;19.20;88.20;;;;;;5050040;28;20161;-66
2021/08/22 00:43:49;;;;;;;10.85;8.52;;;19.20;88.30;;;;;;5049741;28;20029;-67
2021/08/22 00:46:15;;;;;;;11.25;8.98;;;19.10;88.20;;;;;;5044837;28;20025;-67
2021/08/22 00:48:43;;;;;;;12.02;8.23;;;19.10;88.40;;;;;;5048983;28;20048;-66
2021/08/22 00:51:11;;;;;;;10.80;7.78;;;19.00;88.70;;;;;;5049715;28;20095;-66
2021/08/22 00:53:38;;;;;;;11.95;8.13;;;18.90;88.70;;;;;;5049167;28;20040;-67
2021/08/22 00:56:04;;;;;;;8.43;5.82;;;18.80;88.80;;;;;;5030657;28;20021;-67
2021/08/22 00:58:31;;;;;;;5.60;2.92;;;18.70;89.00;;;;;;5048895;28;20469;-67
2021/08/22 01:00:58;;;;;;;3.80;1.77;;;18.70;89.00;;;;;;5049950;28;20094;-67
2021/08/22 01:03:32;;;;;;;6.45;2.25;;;18.70;88.50;;;;;;5049941;28;20059;-67
2021/08/22 01:06:14;;;;;;;3.00;1.23;;;18.60;88.80;;;;;;5049820;28;20028;-67
2021/08/22 01:08:42;;;;;;;5.88;1.73;;;18.50;88.10;;;;;;5047004;28;20115;-66
2021/08/22 01:11:15;;;;;;;3.65;1.67;;;18.20;88.20;;;;;;5049830;28;20438;-66
2021/08/22 01:13:50;;;;;;;4.95;1.80;;;17.90;88.70;;;;;;5050054;28;20024;-66
2021/08/22 01:16:17;;;;;;;4.38;1.55;;;17.80;89.70;;;;;;5047892;28;20111;-66
2021/08/22 01:18:45;;;;;;;2.35;1.58;;;17.70;90.00;;;;;;5050308;28;20032;-66
2021/08/22 01:21:20;;;;;;;3.55;1.80;;;17.60;90.30;;;;;;5049973;28;20025;-66
2021/08/22 01:24:04;;;;;;;3.42;1.80;;;17.60;90.50;;;;;;5049491;28;20404;-66
2021/08/22 01:26:37;;;;;;;3.90;1.63;;;17.70;90.60;;;;;;5049359;28;20078;-66
2021/08/22 01:29:03;;;;;;;3.10;2.25;;;17.70;90.70;;;;;;5046508;28;20072;-67
2021/08/22 01:31:35;;;;;;;2.50;1.60;;;17.60;90.60;;;;;;5039326;28;20033;-66
2021/08/22 01:34:02;;;;;;;3.50;1.90;;;17.70;90.60;;;;;;5048312;28;20140;-66
2021/08/22 01:36:29;;;;;;;2.70;1.75;;;17.60;90.60;;;;;;5047942;28;20421;-67
2021/08/22 01:38:55;;;;;;;2.40;2.03;;;17.60;90.70;;;;;;5030325;28;20157;-66
2021/08/22 01:41:25;;;;;;;2.47;2.25;;;17.50;90.80;;;;;;5041915;28;20021;-66
2021/08/22 01:43:53;;;;;;;2.85;2.22;;;17.50;91.10;;;;;;5046221;28;20105;-66
2021/08/22 01:46:41;;;;;;;6.05;2.47;;;17.50;91.30;;;;;;5047290;28;20094;-66
2021/08/22 01:49:09;;;;;;;3.53;2.65;;;17.50;91.40;;;;;;5021188;28;20041;-66
2021/08/22 01:51:35;;;;;;;4.20;2.63;;;17.60;91.50;;;;;;5049714;28;20096;-66
2021/08/22 01:54:06;;;;;;;4.90;2.80;;;17.50;91.50;;;;;;5053029;28;20025;-66
2021/08/22 01:56:32;;;;;;;3.85;2.88;;;17.50;92.00;;;;;;5053009;28;20055;-67
2021/08/22 01:58:58;;;;;;;3.92;2.67;;;17.50;91.80;;;;;;5051903;28;20061;-67
2021/08/22 02:01:24;;;;;;;3.97;2.90;;;17.50;92.00;;;;;;5053367;28;20083;-67
2021/08/22 02:03:54;;;;;;;5.70;2.97;;;17.50;92.20;;;;;;5053580;28;20025;-66
2021/08/22 02:06:41;;;;;;;6.93;2.90;;;17.50;92.30;;;;;;5052676;28;20024;-66
2021/08/22 02:09:09;;;;;;;6.28;2.83;;;17.50;92.50;;;;;;5052567;28;20017;-67
2021/08/22 02:11:43;;;;;;;4.45;2.83;;;17.40;92.30;;;;;;5052586;28;20028;-67
2021/08/22 02:14:11;;;;;;;2.85;2.55;;;17.40;92.60;;;;;;5052758;28;20496;-66
2021/08/22 02:16:37;;;;;;;4.82;2.90;;;17.30;92.50;;;;;;5052512;28;20025;-67
2021/08/22 02:19:04;;;;;;;3.45;2.70;;;17.30;92.70;;;;;;5052647;28;20143;-67
2021/08/22 02:21:30;;;;;;;5.72;3.15;;;17.20;92.90;;;;;;5052952;28;20035;-67
2021/08/22 02:23:57;;;;;;;8.27;3.30;;;17.30;93.20;;;;;;5052500;28;20473;-66
2021/08/22 02:26:23;;;;;;;3.95;2.70;;;17.20;93.30;;;;;;5052009;28;20021;-67
2021/08/22 02:28:56;;;;;;;4.47;2.80;;;17.20;93.50;;;;;;5052520;28;20086;-67
2021/08/22 02:31:22;;;;;;;5.10;3.00;;;17.20;93.60;;;;;;5033748;28;20424;-66
2021/08/22 02:33:47;;;;;;;3.17;2.67;;;17.20;93.60;;;;;;5052587;28;20033;-67
2021/08/22 02:36:14;;;;;;;3.45;2.60;;;17.20;93.60;;;;;;5048939;28;20025;-67
2021/08/22 02:38:39;;;;;;;4.43;2.85;;;17.10;93.70;;;;;;5052432;28;20086;-66
2021/08/22 02:41:05;;;;;;;3.90;2.65;;;17.10;93.80;;;;;;5052244;28;20469;-67
2021/08/22 02:43:30;;;;;;;2.90;2.50;;;17.00;93.80;;;;;;5051883;28;20021;-67
2021/08/22 02:45:56;;;;;;;5.32;2.80;;;17.10;93.80;;;;;;5051792;28;20029;-67
2021/08/22 02:48:22;;;;;;;3.60;2.63;;;17.00;93.90;;;;;;5051533;28;20028;-67
2021/08/22 02:50:48;;;;;;;3.70;2.50;;;17.00;94.00;;;;;;5052594;28;20497;-67
2021/08/22 02:53:13;;;;;;;5.22;3.13;;;17.10;94.10;;;;;;5051090;28;20033;-67
2021/08/22 02:55:39;;;;;;;4.93;2.65;;;17.00;94.10;;;;;;5050838;28;20048;-67
2021/08/22 02:58:05;;;;;;;5.35;3.42;;;17.10;94.20;;;;;;5052001;28;20083;-67
2021/08/22 03:00:30;;;;;;;3.90;2.80;;;17.00;94.20;;;;;;5052132;28;20017;-67
2021/08/22 03:02:56;;;;;;;4.72;2.67;;;17.00;94.20;;;;;;5051305;28;20029;-67
2021/08/22 03:05:21;;;;;;;4.63;2.65;;;17.10;94.30;;;;;;5051564;28;20024;-67
2021/08/22 03:07:47;;;;;;;4.45;2.78;;;17.10;94.30;;;;;;5051671;28;20036;-67
2021/08/22 03:10:13;;;;;;;4.75;2.53;;;17.10;94.40;;;;;;5050588;28;20140;-67
2021/08/22 03:12:39;;;;;;;4.47;2.95;;;17.10;94.30;;;;;;5050318;28;20031;-67
2021/08/22 03:15:08;;;;;;;4.05;2.97;;;17.20;94.30;;;;;;5034089;28;20024;-67
2021/08/22 03:17:34;;;;;;;2.72;2.53;;;17.10;94.30;;;;;;5051541;28;20103;-67
2021/08/22 03:20:03;;;;;;;4.55;2.90;;;17.20;94.40;;;;;;5051630;28;20163;-67
2021/08/22 03:22:29;;;;;;;3.20;2.28;;;17.10;94.30;;;;;;5051298;28;20463;-67
2021/08/22 03:24:54;;;;;;;4.60;2.92;;;17.10;94.30;;;;;;5051208;28;20033;-67
2021/08/22 03:27:20;;;;;;;3.65;2.70;;;17.00;94.40;;;;;;5045424;28;20039;-67
2021/08/22 03:29:46;;;;;;;5.05;2.80;;;17.00;94.50;;;;;;5051759;28;20025;-67
2021/08/22 03:32:12;;;;;;;3.42;2.92;;;17.00;94.50;;;;;;5051196;28;20037;-67
2021/08/22 03:34:38;;;;;;;3.15;2.50;;;17.00;94.50;;;;;;5049524;28;20108;-67
2021/08/22 03:37:04;;;;;;;4.80;2.70;;;17.00;94.60;;;;;;5050922;28;20109;-67
2021/08/22 03:39:29;;;;;;;3.97;2.38;;;17.00;94.50;;;;;;5051505;28;20110;-67
2021/08/22 03:41:55;;;;;;;3.60;2.55;;;16.90;94.60;;;;;;5045087;28;20025;-67
2021/08/22 03:46:49;;;;;;;3.20;2.78;;;16.90;94.70;;;;;;5028043;28;20049;-67
2021/08/22 03:49:14;;;;;;;3.97;2.83;;;16.90;94.70;;;;;;5031381;28;20481;-65
2021/08/22 03:51:40;;;;;;;2.67;2.40;;;16.90;94.70;;;;;;5031784;28;20053;-67
2021/08/22 03:54:06;;;;;;;3.15;2.78;;;16.90;94.70;;;;;;5031613;28;20038;-65
2021/08/22 03:56:31;;;;;;;3.22;2.83;;;16.90;94.60;;;;;;5028539;28;20037;-67
2021/08/22 03:58:57;;;;;;;3.47;2.88;;;16.80;94.60;;;;;;5030941;28;20393;-65
2021/08/22 04:01:23;;;;;;;4.03;3.15;;;16.80;94.70;;;;;;5031852;28;20056;-65
2021/08/22 04:03:50;;;;;;;3.08;2.78;;;16.80;94.90;;;;;;5031556;28;20037;-65
2021/08/22 04:06:16;;;;;;;3.92;3.38;;;16.80;94.80;;;;;;5030933;28;20421;-67
2021/08/22 04:08:41;;;;;;;4.70;3.42;;;16.80;94.90;;;;;;5031282;28;20045;-65
2021/08/22 04:11:10;;;;;;;3.45;3.15;;;16.80;94.90;;;;;;5030847;28;20025;-65
2021/08/22 04:13:36;;;;;;;3.75;3.30;;;16.70;94.90;;;;;;5031237;28;20148;-65
2021/08/22 04:16:02;;;;;;;5.78;3.45;;;16.70;94.80;;;;;;5029454;28;20160;-67
2021/08/22 04:18:27;;;;;;;4.18;3.10;;;16.70;94.80;;;;;;5030492;28;20442;-67
2021/08/22 04:20:54;;;;;;;4.15;3.42;;;16.70;94.80;;;;;;5031162;28;20053;-67
2021/08/22 04:23:19;;;;;;;5.90;3.83;;;16.60;94.80;;;;;;5031036;28;20473;-67
2021/08/22 04:25:45;;;;;;;5.65;3.50;;;16.60;94.90;;;;;;5030689;28;20036;-64
2021/08/22 04:28:12;;;;;;;7.18;3.92;;;16.60;94.80;;;;;;5030946;28;20025;-69
2021/08/22 04:30:37;;;;;;;6.57;4.13;;;16.60;95.00;;;;;;5030269;28;20103;-68
2021/08/22 04:33:03;;;;;;;5.13;3.92;;;16.60;95.00;;;;;;5031368;28;20030;-66
2021/08/22 04:35:29;;;;;;;4.50;3.72;;;16.60;95.00;;;;;;5028155;28;20104;-67
2021/08/22 04:37:55;;;;;;;5.18;4.30;;;16.60;95.00;;;;;;5030789;28;20022;-66
2021/08/22 04:40:21;;;;;;;7.55;4.45;;;16.60;95.00;;;;;;5030676;28;20103;-65
2021/08/22 04:42:46;;;;;;;6.40;3.75;;;16.60;95.00;;;;;;5030770;28;20030;-65
2021/08/22 04:45:12;;;;;;;5.00;3.90;;;16.60;95.10;;;;;;5030031;28;20045;-67
2021/08/22 04:47:38;;;;;;;6.90;4.00;;;16.60;95.10;;;;;;5030460;28;20740;-67
2021/08/22 04:50:04;;;;;;;4.72;4.20;;;16.60;95.10;;;;;;5030163;28;20473;-65
2021/08/22 04:52:30;;;;;;;5.70;4.30;;;16.60;95.10;;;;;;5030350;28;20032;-65
2021/08/22 04:54:55;;;;;;;8.88;5.28;;;16.70;95.20;;;;;;5030365;28;20112;-65
2021/08/22 04:57:21;;;;;;;7.20;4.95;;;16.70;95.20;;;;;;5029151;28;20453;-65
2021/08/22 04:59:47;;;;;;;6.43;4.78;;;16.70;95.10;;;;;;5029952;28;20049;-67
2021/08/22 05:02:12;;;;;;;6.63;4.35;;;16.70;95.00;;;;;;5030891;28;20025;-65
2021/08/22 05:04:38;;;;;;;5.90;4.57;;;16.70;95.10;;;;;;5030021;28;20034;-63
2021/08/22 05:07:05;;;;;;;6.15;4.78;;;16.70;95.20;;;;;;5030527;28;20108;-65
2021/08/22 05:09:31;;;;;;;5.45;4.75;;;16.70;95.20;;;;;;5028897;28;20018;-67
2021/08/22 05:11:58;;;;;;;6.60;4.50;;;16.70;95.20;;;;;;5030533;28;20402;-69
2021/08/22 05:14:24;;;;;;;6.03;4.68;;;16.80;95.30;;;;;;5030717;28;20037;-68
2021/08/22 05:16:49;;;;;;;7.65;4.80;;;16.80;95.30;;;;;;5028037;28;20021;-66
2021/08/22 05:19:15;;;;;;;5.82;4.57;;;16.80;95.30;;;;;;5030945;28;20170;-66
2021/08/22 05:21:40;;;;;;;6.38;4.30;;;16.90;95.30;;;;;;5031031;28;20056;-69
2021/08/22 05:24:06;;;;;;;6.70;5.25;;;16.90;95.30;;;;;;5030614;28;20033;-68
2021/08/22 05:26:32;;;;;;;10.55;4.13;;;17.00;95.30;;;;;;5030684;28;20041;-68
2021/08/22 05:28:57;;;;;;;5.15;4.40;;;17.00;95.30;;;;;;5032425;28;20111;-67
2021/08/22 05:31:23;;;;;;;6.10;3.75;;;17.00;95.20;;;;;;5033564;28;20029;-68
2021/08/22 05:33:49;;;;;;;5.25;4.07;;;17.10;95.20;;;;;;5033965;28;20087;-68
2021/08/22 05:36:19;;;;;;;6.07;3.92;;;17.10;95.10;;;;;;5033451;28;20370;-68
2021/08/22 05:38:45;;;;;;;6.72;4.78;;;17.10;95.10;;;;;;5037117;28;20025;-69
2021/08/22 05:41:11;;;;;;;7.07;4.80;;;17.10;95.10;;;;;;5033388;28;20028;-67
2021/08/22 05:43:37;;;;;;;7.88;4.38;;;17.10;95.10;;;;;;5031193;28;20113;-67
2021/08/22 05:46:03;;;;;;;7.72;4.35;;;17.10;95.20;;;;;;5033644;28;20454;-67
2021/08/22 05:48:29;;;;;;;5.35;4.10;;;17.10;95.10;;;;;;5033299;28;20053;-67
2021/08/22 05:50:54;;;;;;;5.10;3.67;;;17.20;95.10;;;;;;5033540;28;20029;-68
2021/08/22 05:53:20;;;;;;;4.78;3.95;;;17.20;95.10;;;;;;5033501;28;20579;-67
2021/08/22 05:55:45;;;;;;;5.05;3.65;;;17.20;95.10;;;;;;5033304;28;20083;-67
2021/08/22 05:58:11;;;;;;;5.40;3.42;;;17.20;95.10;;;;;;5033090;28;20029;-67
2021/08/22 06:00:37;;;;;;;4.75;3.72;;;17.20;95.20;;;;;;5033206;28;20022;-67
2021/08/22 06:03:03;;;;;;;7.30;4.70;;;17.20;95.20;;;;;;5034143;28;20017;-67
2021/08/22 06:05:29;;;;;;;6.97;4.03;;;17.30;95.20;;;;;;5032929;28;20113;-67
2021/08/22 06:07:55;;;;;;;6.25;3.60;;;17.30;95.30;;;;;;5033527;28;20456;-67
2021/08/22 06:10:21;;;;;;;3.95;3.53;;;17.30;95.30;;;;;;5033929;28;20029;-67
2021/08/22 06:12:47;;;;;;;3.83;3.42;;;17.30;95.30;;;;;;5032965;28;20424;-67
2021/08/22 06:15:12;;;;;;;5.07;3.70;;;17.30;95.30;;;;;;5032765;28;20033;-67
2021/08/22 06:17:38;;;;;;;6.20;3.65;;;17.40;95.40;;;;;;5033355;28;20052;-67
2021/08/22 06:20:05;;;;;;;4.15;3.53;;;17.40;95.30;;;;;;5033798;28;20025;-67
2021/08/22 06:22:31;;;;;;;4.00;3.28;;;17.40;95.20;;;;;;5033314;28;20022;-67
2021/08/22 06:24:56;;;;;;;4.75;3.13;;;17.50;95.30;;;;;;5032847;28;20041;-67
2021/08/22 06:27:22;;;;;;;3.28;2.92;;;17.50;95.20;;;;;;5032121;28;20025;-72
2021/08/22 06:29:48;;;;;;;8.35;5.25;;;17.60;95.20;;;;;;5031439;28;20104;-70
2021/08/22 06:32:13;;;;;;;5.78;3.22;;;17.60;95.20;;;;;;5033312;28;20516;-66
2021/08/22 06:34:39;;;;;;;3.75;3.13;;;17.60;95.20;;;;;;5028198;28;20103;-67
2021/08/22 06:37:05;;;;;;;3.80;3.25;;;17.70;95.10;;;;;;5031761;28;20079;-67
2021/08/22 06:39:30;;;;;;;5.10;3.47;;;17.70;95.10;;;;;;5032379;28;20026;-66
2021/08/22 06:41:56;;;;;;;5.25;3.38;;;17.70;95.00;;;;;;5031756;28;20104;-66
2021/08/22 06:44:22;;;;;;;3.92;3.22;;;17.80;95.10;;;;;;5032270;28;20489;-66
2021/08/22 06:46:48;;;;;;;4.85;3.40;;;17.80;95.10;;;;;;5031088;28;20029;-67
2021/08/22 06:49:14;;;;;;;4.50;3.40;;;17.90;95.10;;;;;;5032329;28;20033;-66
2021/08/22 06:51:40;;;;;;;5.13;3.33;;;17.90;95.10;;;;;;5032640;28;20107;-66
2021/08/22 06:54:06;;;;;;;8.18;3.60;;;18.00;95.10;;;;;;5031976;28;20065;-66
2021/08/22 06:56:32;;;;;;;4.40;4.00;;;18.00;95.00;;;;;;5031834;28;20117;-66
2021/08/22 06:58:58;;;;;;;5.05;3.35;;;18.10;95.00;;;;;;5032159;28;20018;-67
2021/08/22 07:01:23;;;;;;;3.83;3.30;;;18.10;94.90;;;;;;5031930;28;20575;-66
2021/08/22 07:03:49;;;;;;;7.63;3.25;;;18.10;94.90;;;;;;5032820;28;20064;-66
2021/08/22 07:06:15;;;;;;;4.10;3.33;;;18.10;94.80;;;;;;5031531;28;20033;-67
2021/08/22 07:08:41;;;;;;;3.33;2.92;;;18.20;94.80;;;;;;5032716;28;20082;-67
2021/08/22 07:11:06;;;;;;;4.88;3.47;;;18.20;94.80;;;;;;5031813;28;20042;-67
2021/08/22 07:13:33;;;;;;;4.30;3.25;;;18.30;94.80;;;;;;5032554;28;20500;-67
2021/08/22 07:15:59;;;;;;;3.97;2.92;;;18.30;94.80;;;;;;5030909;28;20367;-67
2021/08/22 07:18:24;;;;;;;9.38;5.07;;;18.40;94.80;;;;;;5032228;28;20079;-66
2021/08/22 07:20:50;;;;;;;5.50;3.45;;;18.40;94.70;;;;;;5032613;28;20071;-67
2021/08/22 07:23:15;;;;;;;4.97;2.83;;;18.40;94.70;;;;;;5031830;28;20091;-67
2021/08/22 07:25:41;;;;;;;4.80;3.28;;;18.40;94.70;;;;;;5031087;28;20068;-67
2021/08/22 07:28:07;;;;;;;3.08;2.78;;;18.40;94.70;;;;;;5029081;28;20018;-67
2021/08/22 07:30:33;;;;;;;8.80;3.47;;;18.50;94.80;;;;;;5031161;28;20014;-67
2021/08/22 07:33:01;;;;;;;4.85;3.20;;;18.50;94.70;;;;;;5031737;28;20119;-67
2021/08/22 07:35:27;;;;;;;6.53;3.55;;;18.50;94.70;;;;;;5030994;28;20164;-67
2021/08/22 07:37:52;;;;;;;3.85;3.22;;;18.50;94.50;;;;;;5031443;28;20706;-67
2021/08/22 07:40:18;;;;;;;5.80;3.78;;;18.60;94.60;;;;;;5032172;28;20049;-67
2021/08/22 07:42:43;;;;;;;6.50;3.70;;;18.60;94.60;;;;;;5029883;28;20037;-67
2021/08/22 07:45:09;;;;;;;5.38;3.78;;;18.60;94.50;;;;;;5031213;28;20096;-67
2021/08/22 07:47:35;;;;;;;4.22;3.22;;;18.70;94.50;;;;;;5030819;28;20025;-66
2021/08/22 07:50:01;;;;;;;4.78;3.63;;;18.70;94.50;;;;;;5031465;28;20501;-67
2021/08/22 07:52:26;;;;;;;3.75;3.05;;;18.70;94.60;;;;;;5032911;28;20018;-67
2021/08/22 07:54:52;;;;;;;7.07;3.20;;;18.80;94.60;;;;;;5031186;28;20022;-67
2021/08/22 07:57:17;;;;;;;5.10;3.35;;;18.80;94.60;;;;;;5031621;28;20041;-67
2021/08/22 07:59:44;;;;;;;4.82;3.15;;;18.80;94.90;;;;;;5030938;28;20030;-67
2021/08/22 08:02:10;;;;;;;6.53;3.53;;;18.80;94.70;;;;;;5031770;28;20055;-67
2021/08/22 08:04:35;;;;;;;9.32;4.95;;;18.80;94.60;;;;;;5030022;28;20021;-67
2021/08/22 08:07:01;;;;;;;7.55;3.97;;;18.80;94.60;;;;;;5030130;28;20087;-68
2021/08/22 08:09:26;;;;;;;6.68;4.20;;;18.70;94.60;;;;;;5031122;28;20056;-67
2021/08/22 08:11:52;;;;;;;7.03;3.83;;;18.70;94.70;;;;;;5029602;28;20505;-65
2021/08/22 08:14:18;;;;;;;5.70;3.83;;;18.60;94.70;;;;;;5029452;28;20057;-68
2021/08/22 08:16:43;;;;;;;6.03;3.33;;;18.50;94.70;;;;;;5030568;28;20061;-66
2021/08/22 08:19:09;;;;;;;4.00;3.03;;;18.50;94.70;;;;;;5026443;28;20022;-66
2021/08/22 08:21:34;;;;;;;5.68;3.65;;;18.40;94.80;;;;;;5026694;28;20122;-69
2021/08/22 08:24:00;;;;;;;3.72;3.20;;;18.30;94.80;;;;;;5029832;28;20033;-69
2021/08/22 08:26:26;;;;;;;6.22;3.03;;;18.30;94.80;;;;;;5028881;28;20033;-69
2021/08/22 08:28:51;;;;;;;4.53;3.03;;;18.20;94.90;;;;;;5031013;28;20068;-68
2021/08/22 08:31:17;;;;;;;4.22;3.33;;;18.20;95.20;;;;;;5030977;28;20040;-69
2021/08/22 08:33:43;;;;;;;4.50;3.50;;;18.20;95.10;;;;;;5030829;28;20097;-69
2021/08/22 08:36:08;;;;;;;4.57;2.90;;;18.30;95.20;;;;;;5029992;28;20036;-69
2021/08/22 08:38:34;;;;;;;3.60;3.10;;;18.40;95.20;;;;;;5030469;28;20018;-69
2021/08/22 08:41:01;;;;;;;4.18;3.15;;;18.50;95.20;;;;;;5028147;28;20508;-69
2021/08/22 08:43:27;;;;;;;5.97;3.10;;;18.50;95.20;;;;;;5028442;28;20026;-69
2021/08/22 08:46:00;;;;;;;3.72;2.97;;;18.40;95.20;;;;;;5026037;28;20037;-68
2021/08/22 08:48:26;;;;;;;5.03;3.50;;;18.50;95.20;;;;;;5024274;28;20025;-68
2021/08/22 08:51:00;;;;;;;5.20;3.55;;;18.50;95.20;;;;;;5025677;28;20029;-68
2021/08/22 08:53:49;;;;;;;3.58;3.20;;;18.60;95.30;;;;;;5027211;28;20381;-68
2021/08/22 08:56:20;;;;;;;3.75;3.35;;;18.60;95.40;;;;;;5020871;28;20037;-68
2021/08/22 08:58:45;;;;;;;3.83;3.40;;;18.70;95.30;;;;;;5029225;28;20385;-68
2021/08/22 09:01:11;;;;;;;4.10;3.50;;;18.70;95.20;;;;;;5027210;28;20096;-68
2021/08/22 09:03:41;;;;;;;3.53;3.22;;;18.80;95.30;;;;;;5027163;28;20025;-67
2021/08/22 09:06:15;;;;;;;5.00;3.65;;;18.80;95.20;;;;;;5027284;28;20505;-67
2021/08/22 09:09:09;;;;;;;4.15;3.58;;;18.90;95.40;;;;;;5027598;28;20040;-67
2021/08/22 09:11:43;;;;;;;4.80;3.38;;;18.90;95.30;;;;;;5029033;28;20033;-67
2021/08/22 09:14:46;;;;;;;3.75;3.33;;;19.00;95.20;;;;;;5028998;28;20194;-66
2021/08/22 09:17:42;;;;;;;6.13;3.45;;;19.10;95.30;;;;;;5028971;28;20025;-67
2021/08/22 09:20:17;;;;;;;5.68;3.60;;;19.20;95.20;;;;;;5028079;28;20029;-67
2021/08/22 09:23:04;;;;;;;4.65;3.67;;;19.20;95.10;;;;;;5028671;28;20057;-67
2021/08/22 09:25:36;;;;;;;6.13;3.92;;;19.30;95.10;;;;;;5028509;28;20034;-67
2021/08/22 09:28:07;;;;;;;5.55;3.80;;;19.40;94.90;;;;;;5027399;28;20041;-66
2021/08/22 09:30:54;;;;;;;5.40;3.83;;;19.40;94.70;;;;;;5028355;28;20187;-67
2021/08/22 09:33:57;;;;;;;6.80;3.85;;;19.40;94.80;;;;;;5030445;28;20053;-67
2021/08/22 09:36:50;;;;;;;4.30;3.83;;;19.40;94.90;;;;;;5041889;28;20022;-67
2021/08/22 09:39:28;;;;;;;6.13;3.80;;;19.50;95.00;;;;;;5044887;28;20482;-67
2021/08/22 09:42:22;;;;;;;7.95;5.68;;;19.60;95.00;;;;;;5027869;28;20039;-67
2021/08/22 09:47:47;;;;;;;8.23;3.83;;;19.80;94.80;;;;;;5047123;28;20435;-69
2021/08/22 09:50:49;;;;;;;4.47;3.30;;;19.80;94.80;;;;;;5024492;28;20036;-69
2021/08/22 09:53:41;;;;;;;6.53;4.90;;;20.00;94.90;;;;;;5027451;28;20026;-69
2021/08/22 09:56:37;;;;;;;5.40;4.38;;;20.20;94.70;;;;;;5027639;28;20025;-69
2021/08/22 09:59:30;;;;;;;5.68;4.90;;;20.30;94.60;;;;;;5030256;28;20028;-70
2021/08/22 10:02:29;;;;;;;5.22;4.20;;;20.30;94.40;;;;;;5028466;28;20500;-69
2021/08/22 10:04:55;;;;;;;5.95;4.47;;;20.30;94.40;;;;;;5029485;28;20049;-70
2021/08/22 10:07:46;;;;;;;5.32;4.45;;;20.30;94.20;;;;;;5026838;28;20117;-69
2021/08/22 10:10:21;;;;;;;9.98;4.88;;;20.30;94.20;;;;;;5023083;28;20056;-69
2021/08/22 10:12:46;;;;;;;6.00;4.82;;;20.20;94.10;;;;;;5031289;28;20083;-69
2021/08/22 10:15:17;;;;;;;6.03;4.57;;;20.10;94.10;;;;;;5031654;28;20033;-68
2021/08/22 10:17:45;;;;;;;6.47;5.18;;;20.10;94.20;;;;;;5025583;28;20508;-70
2021/08/22 10:20:11;;;;;;;6.22;5.03;;;20.10;94.10;;;;;;5030479;28;20041;-71
2021/08/22 10:22:37;;;;;;;9.32;5.20;;;20.00;94.00;;;;;;5033564;28;20091;-71
2021/08/22 10:25:17;;;;;;;7.10;5.10;;;19.90;94.10;;;;;;5032439;28;20640;-69
2021/08/22 10:27:45;;;;;;;7.07;4.95;;;19.90;94.20;;;;;;5033119;28;20033;-69
2021/08/22 10:30:19;;;;;;;7.28;4.93;;;19.90;94.20;;;;;;5032306;28;20033;-69
2021/08/22 10:32:57;;;;;;;6.88;5.15;;;19.90;94.30;;;;;;5033290;28;20025;-69
2021/08/22 10:35:23;;;;;;;8.82;5.18;;;19.90;94.30;;;;;;5031689;28;20057;-69
2021/08/22 10:37:49;;;;;;;7.18;5.32;;;19.90;94.30;;;;;;5033055;28;20064;-68
2021/08/22 10:40:30;;;;;;;6.03;5.40;;;19.90;94.20;;;;;;5032903;28;20073;-69
2021/08/22 10:43:09;;;;;;;6.50;5.55;;;19.90;94.30;;;;;;5033656;28;20537;-69
2021/08/22 10:45:41;;;;;;;8.77;5.25;;;19.90;94.30;;;;;;5028671;28;20117;-69
2021/08/22 10:48:22;;;;;;;8.80;5.50;;;19.90;94.30;;;;;;5030683;28;20071;-72
2021/08/22 10:50:57;;;;;;;6.45;5.25;;;19.90;94.20;;;;;;5030136;28;20044;-70
2021/08/22 10:53:29;;;;;;;9.73;6.60;;;19.90;94.20;;;;;;5033599;28;20038;-66
2021/08/22 10:55:56;;;;;;;6.90;5.82;;;19.90;94.10;;;;;;5031830;28;20026;-68
2021/08/22 10:58:53;;;;;;;7.25;6.00;;;19.90;94.10;;;;;;5032882;28;20066;-70
2021/08/22 11:01:19;;;;;;;5.90;5.05;;;19.90;94.20;;;;;;5031518;28;20478;-68
2021/08/22 11:04:26;;;;;;;7.65;5.80;;;19.90;94.20;;;;;;5032441;28;20044;-68
2021/08/22 11:07:03;;;;;;;7.50;5.82;;;19.90;94.20;;;;;;4930275;29;20031;-70
2021/08/22 11:09:40;;;;;;;6.55;5.53;;;19.90;94.10;;;;;;4932384;29;20080;-68
2021/08/22 11:12:33;;;;;;;10.50;5.07;;;19.90;94.10;;;;;;4996221;28;20041;-69
2021/08/22 11:15:02;;;;;;;;;;;19.90;94.00;;;;;;5028597;28;20064;-70
2021/08/22 11:17:27;;;;;;;6.90;5.10;;;19.90;93.90;;;;;;5028898;28;19909;-69
2021/08/22 11:20:05;;;;;;;8.75;5.57;;;19.90;93.80;;;;;;5031532;28;20092;-69
2021/08/22 11:22:31;;;;;;;8.23;4.80;;;19.90;93.80;;;;;;5031073;28;20040;-69
2021/08/22 11:24:58;;;;;;;6.00;5.40;;;19.90;94.00;;;;;;5031076;28;20462;-69
2021/08/22 11:27:29;;;;;;;9.23;5.28;;;19.90;93.90;;;;;;5032244;28;20029;-70
2021/08/22 11:30:04;;;;;;;5.50;4.80;;;19.90;93.90;;;;;;5037530;28;20160;-69
2021/08/22 11:32:30;;;;;;;10.63;5.45;;;19.90;93.80;;;;;;5024423;28;20036;-70
2021/08/22 11:35:17;;;;;;;6.82;5.07;;;19.90;93.80;;;;;;5029940;28;20022;-70
2021/08/22 11:37:44;;;;;;;12.70;9.18;;;19.80;93.90;;;;;;5030753;28;20040;-69
2021/08/22 11:40:11;;;;;;;8.77;6.60;;;19.80;93.80;;;;;;5030493;28;20097;-67
2021/08/22 11:42:37;;;;;;;7.05;5.53;;;19.80;93.90;;;;;;5032269;28;20101;-70
2021/08/22 11:45:11;;;;;;;7.43;5.55;;;19.70;93.80;;;;;;5030896;28;20060;-70
2021/08/22 11:47:37;;;;;;;8.60;5.13;;;19.60;93.80;;;;;;5031781;28;20421;-69
2021/08/22 11:50:08;;;;;;;7.57;5.90;;;19.60;93.70;;;;;;5031906;28;20024;-70
2021/08/22 11:52:36;;;;;;;8.63;6.03;;;19.60;93.80;;;;;;5014046;28;20049;-68
2021/08/22 11:55:06;;;;;;;8.38;5.72;;;19.60;93.80;;;;;;5031062;28;20489;-68
2021/08/22 11:57:32;;;;;;;7.68;5.97;;;19.50;93.80;;;;;;5031897;28;20041;-69
2021/08/22 12:00:04;;;;;;;6.65;5.20;;;19.50;93.80;;;;;;5031189;28;20482;-67
2021/08/22 12:02:30;;;;;;;5.70;4.65;;;19.40;94.00;;;;;;5031582;28;20041;-67
2021/08/22 12:05:18;;;;;;;7.90;4.85;;;19.30;93.90;;;;;;5030902;28;20032;-69
2021/08/22 12:07:45;;;;;;;10.35;7.75;;;19.30;94.00;;;;;;5031238;28;20032;-68
2021/08/22 12:10:25;;;;;;;7.07;4.68;;;19.30;93.90;;;;;;5032040;28;20389;-68
2021/08/22 12:12:52;;;;;;;6.82;4.22;;;19.20;94.00;;;;;;5031481;28;20030;-69
2021/08/22 12:15:19;;;;;;;5.15;4.53;;;19.30;94.10;;;;;;5029653;28;20072;-68
2021/08/22 12:17:45;;;;;;;5.15;4.25;;;19.30;94.10;;;;;;5031325;28;20038;-66
2021/08/22 12:20:22;;;;;;;5.15;3.80;;;19.30;94.20;;;;;;5031731;28;20484;-67
2021/08/22 12:23:05;;;;;;;28.95;21.73;;;19.40;94.10;;;;;;5031581;28;20018;-69
2021/08/22 12:25:32;;;;;;;4.40;3.50;;;19.40;94.20;;;;;;5016818;28;20037;-67
2021/08/22 12:28:29;;;;;;;3.60;3.30;;;19.40;94.00;;;;;;5031256;28;20056;-69
2021/08/22 12:31:06;;;;;;;4.28;3.65;;;19.30;93.80;;;;;;5030888;28;20112;-68
2021/08/22 12:33:33;;;;;;;5.03;4.10;;;19.30;94.00;;;;;;5031550;28;20428;-68
2021/08/22 12:36:06;;;;;;;6.25;3.65;;;19.30;94.10;;;;;;5029597;28;20105;-69
2021/08/22 12:38:40;;;;;;;3.78;3.42;;;19.40;94.10;;;;;;5031221;28;20389;-69
2021/08/22 12:41:21;;;;;;;3.92;3.45;;;19.40;94.00;;;;;;5014068;28;20021;-68
2021/08/22 12:43:46;;;;;;;4.53;3.50;;;19.40;94.10;;;;;;5031417;28;20048;-69
2021/08/22 12:46:12;;;;;;;4.07;3.30;;;19.40;93.90;;;;;;5029306;28;20512;-68
2021/08/22 12:48:37;;;;;;;4.65;4.15;;;19.40;93.90;;;;;;5030917;28;20466;-69
2021/08/22 12:51:08;;;;;;;3.85;3.50;;;19.40;93.80;;;;;;5031245;28;20083;-66
2021/08/22 12:53:34;;;;;;;4.53;3.45;;;19.30;94.00;;;;;;5030819;28;20040;-68
2021/08/22 12:56:01;;;;;;;4.90;3.80;;;19.30;93.90;;;;;;5030204;28;20124;-69
2021/08/22 12:58:27;;;;;;;3.78;3.47;;;19.30;94.00;;;;;;5030905;28;20117;-69
2021/08/22 13:00:52;;;;;;;4.68;3.58;;;19.30;93.80;;;;;;5030241;28;20029;-68